EFRO Airport Information

Runway Information
Runway 03 Length 9849 ft width 197 ft
Elevation 633 ft Threshold 0 ft Heading 37
Runway 21 Length 9849 ft Width 197 ft
Elevation 609 ft Threshold 0 ft Heading 217
Airport Frequencies
Type APP Name APP Frequency 125.8 MHZ
Type ATIS Name ATIS Frequency 117.7 MHZ
Type GND Name GND Frequency 118.525 MHZ
Type PMSV Name PMSV METRO Frequency 125.1 MHZ
Type TWR Name TWR Frequency 118.7 MHZ
Airport Navaids
Type NDB Name Papa-Alfa Frequency 377 KHZ
Type VOR-DME Name Rovani Frequency 117700 KHZ
Type NDB Name Toramo Frequency 416 KHZ
Airport Weather Information & NOTAM
ADDS - METARS form results

(1107 UTC 23 May 2019)
Data provider http://aviationweather.gov/metar/data/
 
METAR text: EFRO 231050Z 01008KT 9999 SCT045 06/M05 Q1018
Conditions at: EFRO (ROVANIEMI (CIV/M, FI) observed 1050 UTC 23 May 2019
Temperature: 6.0°C (43°F)
Dewpoint: -5.0°C (23°F) [RH = 45%]
Pressure (altimeter): 30.06 inches Hg (1018.0 mb)
Winds: from the N (10 degrees) at 9 MPH (8 knots; 4.1 m/s)
Visibility: 6 or more miles (10+ km)
Ceiling: at least 12,000 feet AGL
Clouds: scattered clouds at 4500 feet AGL
Weather: no significant weather observed at this time

METAR text: EFRO 231020Z 10007KT 050V140 9999 SCT044 07/M05 Q1018
Conditions at: EFRO (ROVANIEMI (CIV/M, FI) observed 1020 UTC 23 May 2019
Temperature: 7.0°C (45°F)
Dewpoint: -5.0°C (23°F) [RH = 42%]
Pressure (altimeter): 30.06 inches Hg (1018.0 mb)
Winds: from the E (100 degrees) at 8 MPH (7 knots; 3.6 m/s)
Visibility: 6 or more miles (10+ km)
Ceiling: at least 12,000 feet AGL
Clouds: scattered clouds at 4400 feet AGL
Weather: no significant weather observed at this time

Forecast for: EFRO (ROVANIEMI (CIV/M, FI)
Text: TAF EFRO 230835Z 2309/2409 05008KT 9999 SCT045
Forecast period: 0900 UTC 23 May 2019 to 0900 UTC 24 May 2019
Forecast type: FROM: standard forecast or significant change
Winds: from the NE (50 degrees) at 9 MPH (8 knots; 4.1 m/s)
Visibility: 6 or more miles 10+ km)
Ceiling: at least 12,000 feet AGL
Clouds: scattered clouds at 4500 feet AGL
Weather: no significant weather forecast for this period